AUA155 LOWW-LSGG
Flight info
| Callsign | AUA155 |
|---|---|
| Flight time | N/A |
| Altitude | 34000 |
| Route | SOVIL DCT SITNI DCT BAGSI DCT MATIG DCT TRAUN L856 AKABI L856 TRA DCT LUTIX DCT BENOT |
| Aircraft | A20N/M-SDE2E3FGHIRWXY/LB1 |
Departure
| Time | 2026-04-24 15:52 |
|---|---|
| Airport | Vienna International Airport (LOWW) |
Arrival
| Time | N/A |
|---|---|
| Airport | Geneva International Airport (LSGG) |
| Time | Latitude | Longitude | Altitude | Speed | Heading |
|---|---|---|---|---|---|
| 2026-04-24 15:35 | 48.11838 | 16.56933 | 609 ft | 0 kts | 206° |
| 2026-04-24 15:44 | 48.11843 | 16.56936 | 609 ft | 2 kts | 206° |
| 2026-04-24 15:44 | 48.11856 | 16.56946 | 609 ft | 2 kts | 206° |
| 2026-04-24 15:45 | 48.11870 | 16.56956 | 609 ft | 2 kts | 206° |
| 2026-04-24 15:45 | 48.11883 | 16.56965 | 609 ft | 2 kts | 206° |
| 2026-04-24 15:45 | 48.11892 | 16.56972 | 609 ft | 2 kts | 200° |
| 2026-04-24 15:45 | 48.11906 | 16.56970 | 609 ft | 2 kts | 149° |
| 2026-04-24 15:46 | 48.11914 | 16.56960 | 609 ft | 0 kts | 120° |
| 2026-04-24 15:46 | 48.11917 | 16.56950 | 609 ft | 1 kts | 115° |
| 2026-04-24 15:46 | 48.11917 | 16.56949 | 609 ft | 0 kts | 115° |
| 2026-04-24 15:48 | 48.11914 | 16.56958 | 609 ft | 2 kts | 115° |
| 2026-04-24 15:48 | 48.11907 | 16.56980 | 609 ft | 3 kts | 115° |
| 2026-04-24 15:48 | 48.11895 | 16.57019 | 609 ft | 8 kts | 116° |
| 2026-04-24 15:49 | 48.11857 | 16.57134 | 609 ft | 15 kts | 114° |
| 2026-04-24 15:49 | 48.11834 | 16.57277 | 609 ft | 14 kts | 116° |
| 2026-04-24 15:49 | 48.11762 | 16.57370 | 609 ft | 15 kts | 166° |
| 2026-04-24 15:49 | 48.11664 | 16.57408 | 609 ft | 15 kts | 164° |
| 2026-04-24 15:50 | 48.11565 | 16.57451 | 609 ft | 15 kts | 164° |
| 2026-04-24 15:50 | 48.11466 | 16.57451 | 609 ft | 15 kts | 205° |
| 2026-04-24 15:50 | 48.11371 | 16.57383 | 609 ft | 15 kts | 206° |
| 2026-04-24 15:50 | 48.11274 | 16.57312 | 609 ft | 16 kts | 202° |
| 2026-04-24 15:51 | 48.11176 | 16.57245 | 609 ft | 16 kts | 207° |
| 2026-04-24 15:51 | 48.11078 | 16.57173 | 609 ft | 16 kts | 208° |
| 2026-04-24 15:51 | 48.11058 | 16.57080 | 609 ft | 0 kts | 293° |
| 2026-04-24 15:51 | 48.11058 | 16.57079 | 609 ft | 0 kts | 293° |
| 2026-04-24 15:52 | 48.11109 | 16.56923 | 609 ft | 52 kts | 296° |
| 2026-04-24 15:52 | 48.11379 | 16.56102 | 609 ft | 122 kts | 295° |
| 2026-04-24 15:52 | 48.11833 | 16.54762 | 848 ft | 156 kts | 298° |
| 2026-04-24 15:52 | 48.12269 | 16.53334 | 1548 ft | 154 kts | 283° |
| 2026-04-24 15:53 | 48.12243 | 16.51760 | 2247 ft | 158 kts | 254° |
| 2026-04-24 15:53 | 48.11737 | 16.50291 | 2799 ft | 166 kts | 240° |
| 2026-04-24 15:53 | 48.11055 | 16.48802 | 3250 ft | 183 kts | 240° |
| 2026-04-24 15:53 | 48.10359 | 16.47133 | 3711 ft | 199 kts | 243° |
| 2026-04-24 15:54 | 48.09609 | 16.45293 | 4140 ft | 220 kts | 240° |
| 2026-04-24 15:54 | 48.08764 | 16.43507 | 4526 ft | 242 kts | 237° |
| 2026-04-24 15:54 | 48.07680 | 16.41366 | 5121 ft | 259 kts | 237° |
| 2026-04-24 15:54 | 48.06584 | 16.39203 | 5949 ft | 266 kts | 237° |
| 2026-04-24 15:55 | 48.05476 | 16.36997 | 6867 ft | 268 kts | 238° |
| 2026-04-24 15:55 | 48.04367 | 16.34760 | 7724 ft | 272 kts | 239° |
| 2026-04-24 15:55 | 48.03524 | 16.32260 | 8545 ft | 272 kts | 257° |
| 2026-04-24 15:55 | 48.03277 | 16.29636 | 9347 ft | 271 kts | 272° |
| 2026-04-24 15:56 | 48.03307 | 16.26843 | 10182 ft | 273 kts | 275° |
| 2026-04-24 15:56 | 48.03375 | 16.23977 | 10804 ft | 285 kts | 275° |
| 2026-04-24 15:56 | 48.03448 | 16.20945 | 11207 ft | 303 kts | 275° |
| 2026-04-24 15:56 | 48.03520 | 16.17698 | 11584 ft | 321 kts | 275° |
| 2026-04-24 15:57 | 48.03586 | 16.14306 | 12133 ft | 332 kts | 275° |
| 2026-04-24 15:57 | 48.03646 | 16.10860 | 12890 ft | 336 kts | 274° |
| 2026-04-24 15:57 | 48.03704 | 16.07368 | 13622 ft | 341 kts | 274° |
| 2026-04-24 15:57 | 48.03761 | 16.03829 | 14313 ft | 346 kts | 274° |
| 2026-04-24 15:58 | 48.03818 | 16.00236 | 14994 ft | 350 kts | 274° |
| 2026-04-24 15:58 | 48.03874 | 15.96587 | 15665 ft | 355 kts | 274° |
| 2026-04-24 15:58 | 48.03931 | 15.92876 | 16320 ft | 359 kts | 274° |
| 2026-04-24 15:58 | 48.03987 | 15.89149 | 16952 ft | 364 kts | 274° |
| 2026-04-24 15:59 | 48.04042 | 15.85363 | 17573 ft | 368 kts | 274° |
| 2026-04-24 15:59 | 48.04096 | 15.81540 | 18183 ft | 372 kts | 274° |
| 2026-04-24 15:59 | 48.04150 | 15.77704 | 18919 ft | 372 kts | 274° |
| 2026-04-24 15:59 | 48.04203 | 15.73858 | 19585 ft | 373 kts | 274° |
| 2026-04-24 16:00 | 48.04255 | 15.69990 | 20193 ft | 376 kts | 274° |
| 2026-04-24 16:00 | 48.04306 | 15.66062 | 20798 ft | 379 kts | 274° |
| 2026-04-24 16:00 | 48.04356 | 15.62137 | 21379 ft | 382 kts | 273° |
| 2026-04-24 16:00 | 48.04405 | 15.58178 | 21949 ft | 385 kts | 273° |
| 2026-04-24 16:01 | 48.04452 | 15.54187 | 22516 ft | 388 kts | 273° |
| 2026-04-24 16:01 | 48.04498 | 15.50166 | 23071 ft | 390 kts | 273° |
| 2026-04-24 16:01 | 48.04543 | 15.46123 | 23613 ft | 393 kts | 273° |
| 2026-04-24 16:01 | 48.04587 | 15.42044 | 24138 ft | 396 kts | 273° |
| 2026-04-24 16:02 | 48.04629 | 15.37906 | 24637 ft | 399 kts | 273° |
| 2026-04-24 16:02 | 48.04686 | 15.33761 | 25094 ft | 403 kts | 273° |
| 2026-04-24 16:02 | 48.04754 | 15.29568 | 25544 ft | 407 kts | 273° |
| 2026-04-24 16:02 | 48.04824 | 15.25343 | 25977 ft | 410 kts | 274° |
| 2026-04-24 16:03 | 48.04893 | 15.21073 | 26408 ft | 414 kts | 274° |
| 2026-04-24 16:03 | 48.04960 | 15.16780 | 26824 ft | 417 kts | 274° |
| 2026-04-24 16:03 | 48.05026 | 15.12449 | 27231 ft | 421 kts | 274° |
| 2026-04-24 16:03 | 48.05090 | 15.08055 | 27626 ft | 424 kts | 274° |
| 2026-04-24 16:04 | 48.05152 | 15.03655 | 28000 ft | 427 kts | 274° |
| 2026-04-24 16:04 | 48.05214 | 14.99225 | 28362 ft | 430 kts | 274° |
| 2026-04-24 16:04 | 48.05274 | 14.94760 | 28710 ft | 433 kts | 274° |
| 2026-04-24 16:04 | 48.05331 | 14.90268 | 29077 ft | 435 kts | 274° |
| 2026-04-24 16:05 | 48.05438 | 14.81290 | 29988 ft | 433 kts | 274° |
| 2026-04-24 16:05 | 48.05477 | 14.76787 | 30411 ft | 432 kts | 274° |
| 2026-04-24 16:06 | 48.05545 | 14.67850 | 31185 ft | 432 kts | 274° |
| 2026-04-24 16:06 | 48.05578 | 14.63384 | 31560 ft | 431 kts | 274° |
| 2026-04-24 16:06 | 48.05638 | 14.54473 | 32290 ft | 430 kts | 274° |
| 2026-04-24 16:07 | 48.05666 | 14.50021 | 32608 ft | 431 kts | 274° |
| 2026-04-24 16:07 | 48.05693 | 14.45529 | 32881 ft | 432 kts | 274° |
| 2026-04-24 16:07 | 48.05741 | 14.36553 | 33402 ft | 435 kts | 274° |
| 2026-04-24 16:08 | 48.05761 | 14.32038 | 33662 ft | 436 kts | 274° |
| 2026-04-24 16:08 | 48.05798 | 14.22985 | 34056 ft | 439 kts | 274° |
| 2026-04-24 16:09 | 48.05841 | 14.09288 | 34065 ft | 440 kts | 274° |
| 2026-04-24 16:09 | 48.05860 | 14.00172 | 34066 ft | 441 kts | 274° |
| 2026-04-24 16:11 | 48.05879 | 13.77330 | 34067 ft | 440 kts | 274° |
| 2026-04-24 16:11 | 48.05875 | 13.68223 | 34067 ft | 440 kts | 274° |
| 2026-04-24 16:12 | 48.05770 | 13.54579 | 34071 ft | 441 kts | 270° |
| 2026-04-24 16:13 | 48.04742 | 13.40921 | 34083 ft | 441 kts | 266° |
| 2026-04-24 16:14 | 48.03180 | 13.22820 | 34093 ft | 440 kts | 265° |
| 2026-04-24 16:14 | 48.02001 | 13.09279 | 34094 ft | 439 kts | 265° |
| 2026-04-24 16:15 | 48.00812 | 12.95786 | 34094 ft | 438 kts | 265° |
| 2026-04-24 16:16 | 47.99605 | 12.82283 | 34090 ft | 440 kts | 265° |
| 2026-04-24 16:17 | 47.97542 | 12.59623 | 34095 ft | 443 kts | 264° |
| 2026-04-24 16:18 | 47.95868 | 12.41502 | 34096 ft | 441 kts | 264° |
| 2026-04-24 16:19 | 47.94598 | 12.27949 | 34103 ft | 441 kts | 264° |
| 2026-04-24 16:20 | 47.93307 | 12.14414 | 34114 ft | 440 kts | 263° |
| 2026-04-24 16:20 | 47.91993 | 12.00931 | 34120 ft | 440 kts | 263° |
| 2026-04-24 16:21 | 47.90663 | 11.87422 | 34120 ft | 440 kts | 263° |
| 2026-04-24 16:22 | 47.89769 | 11.78443 | 34120 ft | 440 kts | 263° |
| 2026-04-24 16:22 | 47.88427 | 11.64965 | 34120 ft | 440 kts | 263° |
| 2026-04-24 16:23 | 47.87522 | 11.55941 | 34120 ft | 440 kts | 263° |
| 2026-04-24 16:24 | 47.86152 | 11.42461 | 34120 ft | 441 kts | 263° |
| 2026-04-24 16:24 | 47.85229 | 11.33469 | 34120 ft | 442 kts | 262° |
| 2026-04-24 16:25 | 47.84292 | 11.24412 | 34121 ft | 442 kts | 262° |
| 2026-04-24 16:25 | 47.83351 | 11.15406 | 34121 ft | 442 kts | 262° |
| 2026-04-24 16:26 | 47.81923 | 11.01908 | 34121 ft | 442 kts | 262° |
| 2026-04-24 16:27 | 47.80466 | 10.88368 | 34121 ft | 442 kts | 262° |
| 2026-04-24 16:27 | 47.79491 | 10.79385 | 34120 ft | 442 kts | 262° |
| 2026-04-24 16:28 | 47.78507 | 10.70382 | 34122 ft | 442 kts | 262° |
| 2026-04-24 16:28 | 47.77025 | 10.56939 | 34133 ft | 441 kts | 261° |
| 2026-04-24 16:29 | 47.76030 | 10.47999 | 34141 ft | 440 kts | 261° |
| 2026-04-24 16:30 | 47.74445 | 10.30042 | 34148 ft | 439 kts | 267° |
| 2026-04-24 16:30 | 47.74240 | 10.21015 | 34149 ft | 439 kts | 268° |
| 2026-04-24 16:31 | 47.74044 | 10.12001 | 34149 ft | 439 kts | 268° |
| 2026-04-24 16:31 | 47.73832 | 10.02952 | 34149 ft | 438 kts | 268° |
| 2026-04-24 16:32 | 47.73610 | 9.93920 | 34146 ft | 438 kts | 268° |
| 2026-04-24 16:32 | 47.73382 | 9.84923 | 34138 ft | 438 kts | 268° |
| 2026-04-24 16:33 | 47.73148 | 9.75929 | 34131 ft | 438 kts | 268° |
| 2026-04-24 16:33 | 47.72905 | 9.66907 | 34125 ft | 437 kts | 268° |
| 2026-04-24 16:34 | 47.72655 | 9.57924 | 34122 ft | 438 kts | 268° |
| 2026-04-24 16:34 | 47.72394 | 9.48920 | 34122 ft | 439 kts | 268° |
| 2026-04-24 16:35 | 47.72131 | 9.39877 | 34122 ft | 439 kts | 268° |
| 2026-04-24 16:35 | 47.71891 | 9.30853 | 34122 ft | 439 kts | 267° |
| 2026-04-24 16:36 | 47.71640 | 9.21822 | 34123 ft | 439 kts | 267° |
| 2026-04-24 16:36 | 47.71362 | 9.12812 | 34123 ft | 439 kts | 267° |
| 2026-04-24 16:37 | 47.71068 | 9.03757 | 34123 ft | 439 kts | 266° |
| 2026-04-24 16:37 | 47.70767 | 8.94736 | 34127 ft | 438 kts | 266° |
| 2026-04-24 16:38 | 47.70460 | 8.85739 | 34125 ft | 438 kts | 266° |
| 2026-04-24 16:38 | 47.70147 | 8.76712 | 34123 ft | 438 kts | 266° |
| 2026-04-24 16:39 | 47.69828 | 8.67739 | 34123 ft | 437 kts | 266° |
| 2026-04-24 16:39 | 47.69501 | 8.58749 | 34122 ft | 437 kts | 266° |
| 2026-04-24 16:40 | 47.68757 | 8.49886 | 34122 ft | 435 kts | 257° |
| 2026-04-24 16:40 | 47.66908 | 8.41377 | 34122 ft | 433 kts | 246° |
| 2026-04-24 16:41 | 47.64029 | 8.33600 | 34122 ft | 432 kts | 234° |
| 2026-04-24 16:41 | 47.60566 | 8.26406 | 34123 ft | 431 kts | 233° |
| 2026-04-24 16:42 | 47.57057 | 8.19227 | 34122 ft | 431 kts | 233° |
| 2026-04-24 16:42 | 47.53559 | 8.12064 | 34122 ft | 431 kts | 233° |
| 2026-04-24 16:43 | 47.50061 | 8.04907 | 34122 ft | 431 kts | 233° |
| 2026-04-24 16:43 | 47.46566 | 7.97764 | 34124 ft | 431 kts | 233° |
| 2026-04-24 16:44 | 47.43086 | 7.90671 | 33675 ft | 423 kts | 233° |
| 2026-04-24 16:44 | 47.41375 | 7.87192 | 33171 ft | 420 kts | 233° |
| 2026-04-24 16:44 | 47.39671 | 7.83732 | 32675 ft | 417 kts | 233° |
| 2026-04-24 16:45 | 47.37976 | 7.80293 | 32182 ft | 414 kts | 233° |
| 2026-04-24 16:45 | 47.36312 | 7.76921 | 31699 ft | 411 kts | 233° |
| 2026-04-24 16:45 | 47.34641 | 7.73538 | 31216 ft | 408 kts | 233° |
| 2026-04-24 16:45 | 47.32971 | 7.70162 | 30733 ft | 406 kts | 233° |
| 2026-04-24 16:46 | 47.31324 | 7.66836 | 30261 ft | 403 kts | 233° |
| 2026-04-24 16:46 | 47.29687 | 7.63533 | 29796 ft | 400 kts | 233° |
| 2026-04-24 16:46 | 47.28058 | 7.60251 | 29336 ft | 397 kts | 233° |
| 2026-04-24 16:46 | 47.26441 | 7.56996 | 28879 ft | 394 kts | 233° |
| 2026-04-24 16:47 | 47.24846 | 7.53791 | 28491 ft | 389 kts | 233° |
| 2026-04-24 16:47 | 47.23239 | 7.50566 | 28128 ft | 384 kts | 233° |
| 2026-04-24 16:47 | 47.21663 | 7.47403 | 27773 ft | 379 kts | 233° |
| 2026-04-24 16:47 | 47.20122 | 7.44318 | 27426 ft | 374 kts | 233° |
| 2026-04-24 16:48 | 47.18600 | 7.41274 | 27085 ft | 368 kts | 233° |
| 2026-04-24 16:48 | 47.17098 | 7.38274 | 26748 ft | 363 kts | 232° |
| 2026-04-24 16:48 | 47.15576 | 7.35370 | 26418 ft | 358 kts | 230° |
| 2026-04-24 16:48 | 47.14047 | 7.32545 | 26092 ft | 353 kts | 230° |
| 2026-04-24 16:49 | 47.12536 | 7.29756 | 25769 ft | 348 kts | 230° |
| 2026-04-24 16:49 | 47.11036 | 7.26989 | 25448 ft | 343 kts | 229° |
| 2026-04-24 16:49 | 47.09568 | 7.24286 | 25132 ft | 338 kts | 229° |
| 2026-04-24 16:49 | 47.08116 | 7.21618 | 24820 ft | 334 kts | 229° |
| 2026-04-24 16:50 | 47.07163 | 7.19866 | 24614 ft | 331 kts | 229° |
| 2026-04-24 16:50 | 47.05273 | 7.16391 | 24214 ft | 324 kts | 229° |
| 2026-04-24 16:50 | 47.03889 | 7.13852 | 23937 ft | 319 kts | 229° |
| 2026-04-24 16:50 | 47.02497 | 7.11304 | 23275 ft | 328 kts | 229° |
| 2026-04-24 16:51 | 47.01050 | 7.08662 | 22469 ft | 339 kts | 229° |
| 2026-04-24 16:51 | 46.99561 | 7.05942 | 21648 ft | 350 kts | 230° |
| 2026-04-24 16:51 | 46.98032 | 7.03147 | 20920 ft | 357 kts | 230° |
| 2026-04-24 16:51 | 46.96476 | 7.00306 | 20660 ft | 368 kts | 230° |
| 2026-04-24 16:52 | 46.94874 | 6.97387 | 20655 ft | 365 kts | 230° |
| 2026-04-24 16:52 | 46.93305 | 6.94529 | 20330 ft | 360 kts | 229° |
| 2026-04-24 16:52 | 46.91580 | 6.91945 | 19840 ft | 356 kts | 218° |
| 2026-04-24 16:52 | 46.89578 | 6.89872 | 19470 ft | 349 kts | 208° |
| 2026-04-24 16:53 | 46.87411 | 6.88333 | 19055 ft | 345 kts | 202° |
| 2026-04-24 16:53 | 46.85214 | 6.87007 | 18610 ft | 343 kts | 201° |
| 2026-04-24 16:53 | 46.83021 | 6.85715 | 18149 ft | 341 kts | 201° |
| 2026-04-24 16:53 | 46.80835 | 6.84420 | 17714 ft | 339 kts | 201° |
| 2026-04-24 16:54 | 46.78677 | 6.83136 | 17279 ft | 336 kts | 201° |
| 2026-04-24 16:54 | 46.76531 | 6.81853 | 16826 ft | 335 kts | 201° |
| 2026-04-24 16:54 | 46.74373 | 6.80561 | 16370 ft | 333 kts | 201° |
| 2026-04-24 16:54 | 46.72255 | 6.79292 | 16021 ft | 328 kts | 202° |
| 2026-04-24 16:55 | 46.70187 | 6.78053 | 15843 ft | 318 kts | 202° |
| 2026-04-24 16:55 | 46.68173 | 6.76847 | 15587 ft | 311 kts | 202° |
| 2026-04-24 16:55 | 46.66203 | 6.75616 | 15203 ft | 309 kts | 204° |
| 2026-04-24 16:55 | 46.64291 | 6.74252 | 14803 ft | 308 kts | 207° |
| 2026-04-24 16:56 | 46.62419 | 6.72777 | 14399 ft | 306 kts | 208° |
| 2026-04-24 16:56 | 46.60545 | 6.71294 | 13998 ft | 305 kts | 208° |
| 2026-04-24 16:56 | 46.58693 | 6.69830 | 13600 ft | 304 kts | 208° |
| 2026-04-24 16:56 | 46.56848 | 6.68374 | 13202 ft | 302 kts | 208° |
| 2026-04-24 16:57 | 46.55010 | 6.66924 | 12804 ft | 301 kts | 209° |
| 2026-04-24 16:57 | 46.53186 | 6.65488 | 12417 ft | 299 kts | 209° |
| 2026-04-24 16:57 | 46.51370 | 6.64060 | 12028 ft | 298 kts | 209° |
| 2026-04-24 16:57 | 46.49562 | 6.62638 | 11636 ft | 297 kts | 209° |
| 2026-04-24 16:58 | 46.47744 | 6.61208 | 11256 ft | 295 kts | 209° |
| 2026-04-24 16:58 | 46.45956 | 6.59803 | 11132 ft | 294 kts | 209° |
| 2026-04-24 16:58 | 46.44158 | 6.58393 | 11129 ft | 296 kts | 209° |
| 2026-04-24 16:58 | 46.42353 | 6.56980 | 11127 ft | 296 kts | 209° |
| 2026-04-24 16:59 | 46.40577 | 6.55493 | 11125 ft | 296 kts | 214° |
| 2026-04-24 16:59 | 46.38946 | 6.53708 | 11126 ft | 295 kts | 222° |
| 2026-04-24 16:59 | 46.36032 | 6.49520 | 11126 ft | 295 kts | 226° |
| 2026-04-24 17:00 | 46.34611 | 6.47391 | 11126 ft | 295 kts | 226° |
| 2026-04-24 17:00 | 46.31756 | 6.43141 | 11126 ft | 295 kts | 226° |
| 2026-04-24 17:00 | 46.30326 | 6.41023 | 11126 ft | 295 kts | 226° |
| 2026-04-24 17:01 | 46.27467 | 6.36800 | 11126 ft | 295 kts | 226° |
| 2026-04-24 17:01 | 46.26027 | 6.34677 | 11126 ft | 295 kts | 225° |
| 2026-04-24 17:02 | 46.23160 | 6.30458 | 11126 ft | 295 kts | 225° |
| 2026-04-24 17:02 | 46.21725 | 6.28349 | 11125 ft | 295 kts | 225° |
| 2026-04-24 17:02 | 46.20289 | 6.26240 | 11124 ft | 294 kts | 225° |
| 2026-04-24 17:02 | 46.18894 | 6.24185 | 11024 ft | 285 kts | 226° |
| 2026-04-24 17:03 | 46.16187 | 6.20162 | 10517 ft | 274 kts | 226° |
| 2026-04-24 17:03 | 46.14881 | 6.18222 | 10265 ft | 269 kts | 226° |
| 2026-04-24 17:03 | 46.13597 | 6.16317 | 10028 ft | 263 kts | 226° |
| 2026-04-24 17:04 | 46.12346 | 6.14465 | 9896 ft | 253 kts | 226° |
| 2026-04-24 17:04 | 46.09941 | 6.10907 | 9644 ft | 248 kts | 226° |
| 2026-04-24 17:04 | 46.08738 | 6.09139 | 9518 ft | 248 kts | 226° |
| 2026-04-24 17:05 | 46.07519 | 6.07373 | 9393 ft | 248 kts | 226° |
| 2026-04-24 17:05 | 46.06312 | 6.05619 | 9267 ft | 247 kts | 226° |
| 2026-04-24 17:05 | 46.03901 | 6.02119 | 9105 ft | 247 kts | 226° |
| 2026-04-24 17:06 | 46.02695 | 6.00370 | 9102 ft | 247 kts | 226° |
| 2026-04-24 17:06 | 46.00388 | 5.97027 | 9081 ft | 222 kts | 226° |
| 2026-04-24 17:06 | 45.99329 | 5.95496 | 9074 ft | 210 kts | 226° |
| 2026-04-24 17:07 | 45.98648 | 5.94513 | 9086 ft | 209 kts | 226° |
| 2026-04-24 17:07 | 45.97307 | 5.92525 | 9060 ft | 206 kts | 234° |
| 2026-04-24 17:07 | 45.97113 | 5.88728 | 8403 ft | 204 kts | 302° |
| 2026-04-24 17:08 | 45.98842 | 5.85557 | 7836 ft | 202 kts | 311° |
| 2026-04-24 17:08 | 45.99785 | 5.84025 | 7469 ft | 206 kts | 313° |
| 2026-04-24 17:08 | 46.00941 | 5.82836 | 7074 ft | 210 kts | 345° |
| 2026-04-24 17:09 | 46.03744 | 5.83110 | 6483 ft | 203 kts | 18° |
| 2026-04-24 17:09 | 46.06095 | 5.85133 | 5968 ft | 199 kts | 40° |
| 2026-04-24 17:10 | 46.07118 | 5.86457 | 5717 ft | 198 kts | 43° |
| 2026-04-24 17:10 | 46.10030 | 5.90595 | 4959 ft | 195 kts | 45° |
| 2026-04-24 17:11 | 46.12845 | 5.94754 | 4186 ft | 192 kts | 45° |
| 2026-04-24 17:12 | 46.17164 | 6.01125 | 2981 ft | 161 kts | 46° |